createdAt,value
2022-08-19T00:02:56.167Z,7.07
2022-08-19T00:07:55.189Z,7.15
2022-08-19T00:12:54.372Z,6.43
2022-08-19T00:17:54.689Z,6.45
2022-08-19T00:22:53.683Z,6.20
2022-08-19T00:27:52.797Z,6.15
2022-08-19T00:32:51.925Z,5.78
2022-08-19T00:37:52.958Z,6.05
2022-08-19T00:42:54.926Z,6.20
2022-08-19T00:47:53.825Z,5.95
2022-08-19T00:52:55.884Z,6.60
2022-08-19T00:57:58.574Z,6.43
2022-08-19T01:02:58.313Z,6.60
2022-08-19T01:08:01.183Z,6.53
2022-08-19T01:13:49.448Z,7.22
2022-08-19T01:18:49.510Z,5.70
2022-08-19T01:23:50.158Z,7.22
2022-08-19T01:28:51.847Z,6.80
2022-08-19T01:33:51.887Z,6.38
2022-08-19T01:38:52.411Z,6.70
2022-08-19T01:44:13.981Z,7.20
2022-08-19T01:49:11.245Z,7.15
2022-08-19T01:54:13.758Z,7.35
2022-08-19T01:59:26.929Z,8.95
2022-08-19T02:04:28.673Z,9.05
2022-08-19T02:09:28.940Z,7.93
2022-08-19T02:14:28.164Z,7.93
2022-08-19T02:19:27.032Z,8.88
2022-08-19T02:24:26.138Z,7.63
2022-08-19T02:29:26.684Z,8.25
2022-08-19T02:34:26.393Z,7.67
2022-08-19T02:39:25.307Z,7.22
2022-08-19T02:44:31.188Z,7.18
2022-08-19T02:49:34.710Z,8.38
2022-08-19T02:54:33.833Z,7.30
2022-08-19T02:59:32.839Z,7.25
2022-08-19T03:04:33.081Z,7.45
2022-08-19T03:09:32.213Z,7.80
2022-08-19T03:14:33.185Z,8.70
2022-08-19T03:19:33.635Z,8.63
2022-08-19T03:24:32.975Z,9.23
2022-08-19T03:29:43.199Z,9.30
2022-08-19T03:34:44.423Z,8.95
2022-08-19T03:39:44.057Z,8.83
2022-08-19T03:44:45.683Z,8.30
2022-08-19T03:49:46.850Z,8.20
2022-08-19T03:59:45.223Z,9.40
2022-08-19T04:04:46.110Z,8.35
2022-08-19T04:09:45.557Z,9.13
2022-08-19T04:14:44.566Z,9.10
2022-08-19T04:19:44.088Z,7.72
2022-08-19T04:24:45.241Z,8.77
2022-08-19T04:29:44.740Z,8.25
2022-08-19T04:35:03.192Z,9.18
2022-08-19T04:40:30.572Z,8.85
2022-08-19T04:45:43.630Z,8.48
2022-08-19T04:50:45.858Z,8.88
2022-08-19T04:55:46.704Z,8.68
2022-08-19T05:00:46.099Z,8.93
2022-08-19T05:05:46.996Z,9.68
2022-08-19T05:10:53.259Z,9.15
2022-08-19T05:15:57.417Z,10.13
2022-08-19T05:21:14.468Z,10.13
2022-08-19T05:26:15.619Z,9.30
2022-08-19T05:31:14.957Z,10.60
2022-08-19T05:36:15.170Z,10.18
2022-08-19T05:41:24.486Z,10.63
2022-08-19T05:46:27.935Z,10.07
2022-08-19T05:51:29.318Z,10.10
2022-08-19T05:56:31.586Z,11.23
2022-08-19T06:01:31.164Z,11.40
2022-08-19T06:06:30.349Z,11.07
2022-08-19T06:11:38.566Z,11.75
2022-08-19T06:16:39.815Z,10.32
2022-08-19T06:26:42.245Z,12.18
2022-08-19T06:31:45.081Z,13.23
2022-08-19T06:36:47.033Z,12.75
2022-08-19T06:41:52.520Z,6.35
2022-08-19T06:46:53.571Z,7.78
2022-08-19T06:51:54.777Z,7.20
2022-08-19T06:56:56.788Z,6.78
2022-08-19T07:01:58.721Z,8.05
2022-08-19T07:07:20.220Z,9.27
2022-08-19T07:12:22.839Z,7.75
2022-08-19T07:17:22.793Z,7.70
2022-08-19T07:22:28.339Z,7.63
2022-08-19T07:40:14.997Z,6.25
2022-08-19T07:45:20.239Z,5.70
2022-08-19T07:50:25.050Z,5.70
2022-08-19T07:55:42.171Z,5.80
2022-08-19T08:00:46.419Z,7.00
2022-08-19T08:06:03.660Z,6.70
2022-08-19T08:11:03.373Z,6.13
2022-08-19T08:16:10.261Z,6.22
2022-08-19T08:21:16.035Z,5.63
2022-08-19T08:26:21.489Z,5.95
2022-08-19T08:31:27.575Z,6.38
2022-08-19T08:36:28.486Z,6.53
2022-08-19T08:41:34.421Z,5.82
2022-08-19T08:46:41.334Z,5.95
2022-08-19T08:51:47.254Z,5.70
2022-08-19T08:56:52.127Z,6.55
2022-08-19T09:01:55.587Z,5.78
2022-08-19T09:07:17.945Z,5.30
2022-08-19T09:12:37.715Z,7.72
2022-08-19T09:17:44.720Z,14.35
2022-08-19T09:22:51.040Z,4.93
2022-08-19T09:27:55.429Z,5.68
2022-08-19T09:33:04.983Z,8.00
2022-08-19T09:38:04.765Z,8.68
2022-08-19T09:43:09.937Z,5.47
2022-08-19T09:48:18.905Z,5.18
2022-08-19T09:53:18.369Z,5.50
2022-08-19T09:58:17.246Z,5.38
2022-08-19T10:03:17.999Z,5.25
2022-08-19T10:08:19.118Z,5.13
2022-08-19T10:13:26.596Z,4.80
2022-08-19T10:18:27.721Z,4.85
2022-08-19T10:23:33.776Z,5.68
2022-08-19T10:28:38.994Z,10.95
2022-08-19T10:33:54.136Z,6.90
2022-08-19T10:38:56.999Z,7.03
2022-08-19T10:44:04.344Z,5.57
2022-08-19T10:49:07.044Z,5.75
2022-08-19T10:54:12.572Z,5.50
2022-08-19T10:59:13.436Z,4.70
2022-08-19T11:04:14.780Z,5.40
2022-08-19T11:09:13.912Z,4.95
2022-08-19T11:14:15.953Z,4.90
2022-08-19T11:19:20.145Z,5.40
2022-08-19T11:24:21.277Z,5.15
2022-08-19T11:29:22.851Z,4.53
2022-08-19T11:34:26.467Z,6.55
2022-08-19T11:39:29.366Z,7.20
2022-08-19T11:44:32.143Z,7.43
2022-08-19T11:49:37.303Z,5.90
2022-08-19T11:54:45.559Z,6.13
2022-08-19T11:59:44.771Z,5.80
2022-08-19T12:04:45.184Z,5.18
2022-08-19T12:09:44.508Z,6.45
2022-08-19T12:14:47.685Z,5.68
2022-08-19T12:19:48.033Z,5.18
2022-08-19T12:24:47.056Z,5.65
2022-08-19T12:29:45.979Z,4.40
2022-08-19T12:34:45.743Z,4.07
2022-08-19T12:39:46.540Z,4.72
2022-08-19T12:45:09.528Z,4.40
2022-08-19T12:50:10.421Z,4.43
2022-08-19T12:55:12.215Z,4.70
2022-08-19T13:00:14.851Z,4.57
2022-08-19T13:05:16.974Z,4.45
2022-08-19T13:10:20.710Z,5.57
2022-08-19T13:15:23.986Z,7.45
2022-08-19T13:20:25.242Z,4.32
2022-08-19T13:25:27.925Z,3.80
2022-08-19T13:30:44.248Z,4.63
2022-08-19T13:35:45.811Z,4.47
2022-08-19T13:40:47.465Z,3.90
2022-08-19T13:45:46.611Z,4.30
2022-08-19T13:50:48.391Z,4.32
2022-08-19T13:55:48.822Z,4.35
2022-08-19T14:01:00.805Z,4.05
2022-08-19T14:05:59.731Z,3.92
2022-08-19T14:11:08.488Z,4.07
2022-08-19T14:16:12.914Z,4.97
2022-08-19T14:21:18.731Z,3.45
2022-08-19T14:26:22.663Z,4.78
2022-08-19T14:31:28.970Z,4.18
2022-08-19T14:36:30.092Z,3.78
2022-08-19T14:41:31.423Z,4.03
2022-08-19T14:46:31.798Z,4.75
2022-08-19T14:51:30.791Z,4.15
2022-08-19T14:56:33.644Z,4.38
2022-08-19T15:01:32.549Z,3.55
2022-08-19T15:06:32.793Z,3.90
2022-08-19T15:11:35.220Z,4.22
2022-08-19T15:16:34.781Z,3.80
2022-08-19T15:21:34.136Z,4.00
2022-08-19T15:26:34.657Z,4.65
2022-08-19T15:31:38.936Z,4.25
2022-08-19T15:36:38.698Z,3.67
2022-08-19T15:41:41.259Z,5.80
2022-08-19T15:46:43.710Z,4.28
2022-08-19T15:51:44.497Z,4.32
2022-08-19T15:57:01.873Z,3.70
2022-08-19T16:02:18.391Z,4.63
2022-08-19T16:07:23.528Z,4.25
2022-08-19T16:12:30.565Z,4.60
2022-08-19T16:17:29.739Z,4.82
2022-08-19T16:22:31.736Z,6.20
2022-08-19T16:27:32.210Z,5.22
2022-08-19T16:32:33.138Z,4.90
2022-08-19T16:37:33.116Z,6.22
2022-08-19T16:42:36.039Z,5.13
2022-08-19T16:47:35.315Z,5.13
2022-08-19T16:52:35.126Z,7.00
2022-08-19T16:57:36.486Z,7.43
2022-08-19T17:02:37.326Z,5.78
2022-08-19T17:07:36.348Z,5.35
2022-08-19T17:12:39.131Z,6.15
2022-08-19T17:17:38.370Z,10.82
2022-08-19T17:22:37.572Z,9.55
2022-08-19T17:27:38.494Z,13.40
2022-08-19T17:32:37.814Z,11.35
2022-08-19T17:37:38.179Z,10.35
2022-08-19T17:42:40.803Z,8.80
2022-08-19T17:47:40.633Z,9.93
2022-08-19T17:52:40.539Z,8.35
2022-08-19T17:57:46.079Z,8.77
2022-08-19T18:02:47.593Z,8.50
2022-08-19T18:07:52.508Z,11.35
2022-08-19T18:12:55.680Z,7.72
2022-08-19T18:17:58.230Z,8.55
2022-08-19T18:23:00.091Z,6.60
2022-08-19T18:28:20.823Z,6.90
2022-08-19T18:33:21.240Z,5.85
2022-08-19T18:38:40.121Z,5.43
2022-08-19T18:43:58.061Z,6.57
2022-08-19T18:49:06.455Z,6.10
2022-08-19T18:54:05.834Z,5.53
2022-08-19T18:59:06.380Z,5.15
2022-08-19T19:04:07.647Z,4.38
2022-08-19T19:09:07.794Z,5.40
2022-08-19T19:19:30.889Z,5.15
2022-08-19T19:24:33.289Z,5.53
2022-08-19T19:29:37.104Z,5.40
2022-08-19T19:34:38.263Z,5.03
2022-08-19T19:39:45.726Z,5.05
2022-08-19T19:44:49.265Z,5.57
2022-08-19T19:50:13.800Z,5.30
2022-08-19T19:55:15.799Z,4.93
2022-08-19T20:00:19.000Z,4.68
2022-08-19T20:05:21.086Z,5.20
2022-08-19T20:10:20.462Z,4.43
2022-08-19T20:15:21.249Z,4.97
2022-08-19T20:20:20.791Z,5.00
2022-08-19T20:25:22.413Z,4.97
2022-08-19T20:30:23.866Z,4.63
2022-08-19T20:35:25.171Z,4.47
2022-08-19T20:40:24.039Z,4.90
2022-08-19T20:45:32.461Z,5.63
2022-08-19T20:50:34.423Z,4.23
2022-08-19T20:55:34.865Z,5.22
2022-08-19T21:00:35.305Z,5.05
2022-08-19T21:05:34.562Z,4.78
2022-08-19T21:10:34.243Z,5.13
2022-08-19T21:15:35.359Z,4.17
2022-08-19T21:20:34.404Z,5.00
2022-08-19T21:25:33.318Z,4.60
2022-08-19T21:30:32.435Z,4.90
2022-08-19T21:35:33.652Z,5.38
2022-08-19T21:40:32.632Z,5.13
2022-08-19T21:45:31.922Z,5.53
2022-08-19T21:50:33.063Z,4.40
2022-08-19T21:55:32.115Z,4.50
2022-08-19T22:00:32.389Z,5.07
2022-08-19T22:05:34.048Z,4.72
2022-08-19T22:10:35.580Z,4.22
2022-08-19T22:15:34.535Z,4.50
2022-08-19T22:20:35.310Z,4.47
2022-08-19T22:25:40.815Z,4.88
2022-08-19T22:30:41.910Z,4.47
2022-08-19T22:35:44.586Z,5.22
2022-08-19T22:40:47.336Z,4.85
2022-08-19T22:45:47.721Z,5.00
2022-08-19T22:51:03.895Z,4.13
2022-08-19T22:56:02.929Z,4.95
2022-08-19T23:01:02.336Z,4.82
2022-08-19T23:06:03.078Z,5.68
2022-08-19T23:11:02.572Z,6.72
2022-08-19T23:16:01.538Z,5.72
2022-08-19T23:21:03.447Z,5.55
2022-08-19T23:26:02.359Z,5.57
2022-08-19T23:31:00.437Z,5.05
2022-08-19T23:36:01.581Z,6.07
2022-08-19T23:41:05.741Z,5.53
2022-08-19T23:46:10.525Z,5.43
2022-08-19T23:51:12.343Z,6.07
2022-08-19T23:56:13.910Z,5.43
